sensor_id;sensor_type;location;lat;lon;timestamp;P1;durP1;ratioP1;P2;durP2;ratioP2
20245;SDS011;10281;54.406;18.556;2022-07-01T00:02:20;9.20;;;8.30;;
20245;SDS011;10281;54.406;18.556;2022-07-01T00:04:47;9.07;;;8.13;;
20245;SDS011;10281;54.406;18.556;2022-07-01T00:07:13;10.10;;;7.73;;
20245;SDS011;10281;54.406;18.556;2022-07-01T00:09:41;8.67;;;7.87;;
20245;SDS011;10281;54.406;18.556;2022-07-01T00:12:08;8.80;;;8.00;;
20245;SDS011;10281;54.406;18.556;2022-07-01T00:14:35;8.93;;;8.03;;
20245;SDS011;10281;54.406;18.556;2022-07-01T00:17:02;8.87;;;7.97;;
20245;SDS011;10281;54.406;18.556;2022-07-01T00:19:28;8.37;;;7.57;;
20245;SDS011;10281;54.406;18.556;2022-07-01T00:21:55;8.97;;;8.07;;
20245;SDS011;10281;54.406;18.556;2022-07-01T00:24:22;9.83;;;8.83;;
20245;SDS011;10281;54.406;18.556;2022-07-01T00:26:48;10.27;;;8.00;;
20245;SDS011;10281;54.406;18.556;2022-07-01T00:29:15;10.67;;;9.07;;
20245;SDS011;10281;54.406;18.556;2022-07-01T00:31:41;8.93;;;8.13;;
20245;SDS011;10281;54.406;18.556;2022-07-01T00:34:08;11.17;;;7.87;;
20245;SDS011;10281;54.406;18.556;2022-07-01T00:36:36;9.63;;;8.27;;
20245;SDS011;10281;54.406;18.556;2022-07-01T00:39:02;11.97;;;9.53;;
20245;SDS011;10281;54.406;18.556;2022-07-01T00:41:29;11.23;;;9.33;;
20245;SDS011;10281;54.406;18.556;2022-07-01T00:43:56;9.87;;;8.80;;
20245;SDS011;10281;54.406;18.556;2022-07-01T00:46:23;10.40;;;8.83;;
20245;SDS011;10281;54.406;18.556;2022-07-01T00:48:50;11.43;;;8.57;;
20245;SDS011;10281;54.406;18.556;2022-07-01T00:51:18;9.80;;;8.50;;
20245;SDS011;10281;54.406;18.556;2022-07-01T00:53:45;11.47;;;8.80;;
20245;SDS011;10281;54.406;18.556;2022-07-01T00:56:12;10.00;;;8.90;;
20245;SDS011;10281;54.406;18.556;2022-07-01T00:58:39;12.67;;;9.50;;
20245;SDS011;10281;54.406;18.556;2022-07-01T01:01:06;10.97;;;9.00;;
20245;SDS011;10281;54.406;18.556;2022-07-01T01:03:33;10.07;;;9.07;;
20245;SDS011;10281;54.406;18.556;2022-07-01T01:05:59;11.63;;;10.03;;
20245;SDS011;10281;54.406;18.556;2022-07-01T01:08:27;11.77;;;8.60;;
20245;SDS011;10281;54.406;18.556;2022-07-01T01:10:54;11.37;;;10.13;;
20245;SDS011;10281;54.406;18.556;2022-07-01T01:13:21;11.20;;;10.10;;
20245;SDS011;10281;54.406;18.556;2022-07-01T01:15:48;9.90;;;8.80;;
20245;SDS011;10281;54.406;18.556;2022-07-01T01:18:15;10.73;;;9.23;;
20245;SDS011;10281;54.406;18.556;2022-07-01T01:20:42;9.67;;;8.67;;
20245;SDS011;10281;54.406;18.556;2022-07-01T01:23:09;11.00;;;10.00;;
20245;SDS011;10281;54.406;18.556;2022-07-01T01:25:35;10.13;;;9.07;;
20245;SDS011;10281;54.406;18.556;2022-07-01T01:28:02;12.23;;;9.70;;
20245;SDS011;10281;54.406;18.556;2022-07-01T01:30:29;11.50;;;9.57;;
20245;SDS011;10281;54.406;18.556;2022-07-01T01:32:57;11.43;;;10.00;;
20245;SDS011;10281;54.406;18.556;2022-07-01T01:35:23;11.20;;;10.00;;
20245;SDS011;10281;54.406;18.556;2022-07-01T01:37:50;11.20;;;10.10;;
20245;SDS011;10281;54.406;18.556;2022-07-01T01:40:17;11.60;;;10.40;;
20245;SDS011;10281;54.406;18.556;2022-07-01T01:42:44;12.10;;;10.53;;
20245;SDS011;10281;54.406;18.556;2022-07-01T01:45:11;10.63;;;9.73;;
20245;SDS011;10281;54.406;18.556;2022-07-01T01:47:38;12.23;;;10.13;;
20245;SDS011;10281;54.406;18.556;2022-07-01T01:50:06;11.07;;;9.50;;
20245;SDS011;10281;54.406;18.556;2022-07-01T01:52:33;13.20;;;10.07;;
20245;SDS011;10281;54.406;18.556;2022-07-01T01:55:00;10.43;;;9.33;;
20245;SDS011;10281;54.406;18.556;2022-07-01T01:57:27;10.67;;;9.53;;
20245;SDS011;10281;54.406;18.556;2022-07-01T01:59:54;10.73;;;8.77;;
20245;SDS011;10281;54.406;18.556;2022-07-01T02:02:20;10.00;;;8.43;;
20245;SDS011;10281;54.406;18.556;2022-07-01T02:04:47;10.00;;;9.00;;
20245;SDS011;10281;54.406;18.556;2022-07-01T02:07:15;9.57;;;8.63;;
20245;SDS011;10281;54.406;18.556;2022-07-01T02:09:41;10.60;;;8.63;;
20245;SDS011;10281;54.406;18.556;2022-07-01T02:12:08;8.90;;;8.00;;
20245;SDS011;10281;54.406;18.556;2022-07-01T02:14:35;9.83;;;8.93;;
20245;SDS011;10281;54.406;18.556;2022-07-01T02:17:02;12.37;;;8.43;;
20245;SDS011;10281;54.406;18.556;2022-07-01T02:19:29;10.03;;;8.57;;
20245;SDS011;10281;54.406;18.556;2022-07-01T02:21:56;9.67;;;8.67;;
20245;SDS011;10281;54.406;18.556;2022-07-01T02:24:23;9.80;;;8.20;;
20245;SDS011;10281;54.406;18.556;2022-07-01T02:26:50;12.90;;;9.03;;
20245;SDS011;10281;54.406;18.556;2022-07-01T02:29:16;8.63;;;7.80;;
20245;SDS011;10281;54.406;18.556;2022-07-01T02:31:43;9.53;;;8.30;;
20245;SDS011;10281;54.406;18.556;2022-07-01T02:34:10;9.27;;;8.33;;
20245;SDS011;10281;54.406;18.556;2022-07-01T02:36:36;11.90;;;9.10;;
20245;SDS011;10281;54.406;18.556;2022-07-01T02:39:04;10.73;;;8.70;;
20245;SDS011;10281;54.406;18.556;2022-07-01T02:41:30;9.83;;;8.83;;
20245;SDS011;10281;54.406;18.556;2022-07-01T02:43:57;10.27;;;8.80;;
20245;SDS011;10281;54.406;18.556;2022-07-01T02:46:24;13.97;;;9.13;;
20245;SDS011;10281;54.406;18.556;2022-07-01T02:48:50;10.70;;;9.70;;
20245;SDS011;10281;54.406;18.556;2022-07-01T02:51:17;9.10;;;8.27;;
20245;SDS011;10281;54.406;18.556;2022-07-01T02:53:44;9.50;;;8.47;;
20245;SDS011;10281;54.406;18.556;2022-07-01T02:56:10;11.53;;;8.67;;
20245;SDS011;10281;54.406;18.556;2022-07-01T02:58:37;8.60;;;7.80;;
20245;SDS011;10281;54.406;18.556;2022-07-01T03:01:03;9.60;;;8.60;;
20245;SDS011;10281;54.406;18.556;2022-07-01T03:03:30;9.40;;;8.23;;
20245;SDS011;10281;54.406;18.556;2022-07-01T03:05:56;10.90;;;8.73;;
20245;SDS011;10281;54.406;18.556;2022-07-01T03:08:23;11.00;;;9.10;;
20245;SDS011;10281;54.406;18.556;2022-07-01T03:10:50;9.63;;;8.73;;
20245;SDS011;10281;54.406;18.556;2022-07-01T03:13:16;10.10;;;9.03;;
20245;SDS011;10281;54.406;18.556;2022-07-01T03:15:44;11.47;;;9.00;;
20245;SDS011;10281;54.406;18.556;2022-07-01T03:18:11;9.37;;;8.37;;
20245;SDS011;10281;54.406;18.556;2022-07-01T03:20:38;10.27;;;9.07;;
20245;SDS011;10281;54.406;18.556;2022-07-01T03:23:05;9.90;;;8.40;;
20245;SDS011;10281;54.406;18.556;2022-07-01T03:25:32;9.50;;;8.70;;
20245;SDS011;10281;54.406;18.556;2022-07-01T03:27:58;13.40;;;9.20;;
20245;SDS011;10281;54.406;18.556;2022-07-01T03:30:27;9.23;;;8.33;;
20245;SDS011;10281;54.406;18.556;2022-07-01T03:32:53;11.17;;;9.20;;
20245;SDS011;10281;54.406;18.556;2022-07-01T03:35:20;10.40;;;9.00;;
20245;SDS011;10281;54.406;18.556;2022-07-01T03:38:09;9.97;;;8.87;;
20245;SDS011;10281;54.406;18.556;2022-07-01T03:40:36;10.37;;;8.87;;
20245;SDS011;10281;54.406;18.556;2022-07-01T03:43:04;10.30;;;8.83;;
20245;SDS011;10281;54.406;18.556;2022-07-01T03:45:31;9.73;;;8.70;;
20245;SDS011;10281;54.406;18.556;2022-07-01T03:47:58;10.33;;;8.97;;
20245;SDS011;10281;54.406;18.556;2022-07-01T03:50:25;9.23;;;8.10;;
20245;SDS011;10281;54.406;18.556;2022-07-01T03:52:52;10.00;;;8.70;;
20245;SDS011;10281;54.406;18.556;2022-07-01T03:55:36;9.43;;;8.40;;
20245;SDS011;10281;54.406;18.556;2022-07-01T03:58:03;10.57;;;8.43;;
20245;SDS011;10281;54.406;18.556;2022-07-01T04:00:32;11.10;;;8.73;;
20245;SDS011;10281;54.406;18.556;2022-07-01T04:02:59;11.70;;;8.80;;
20245;SDS011;10281;54.406;18.556;2022-07-01T04:05:26;11.17;;;9.10;;
20245;SDS011;10281;54.406;18.556;2022-07-01T04:07:54;10.93;;;8.60;;
20245;SDS011;10281;54.406;18.556;2022-07-01T04:10:20;11.43;;;9.20;;
20245;SDS011;10281;54.406;18.556;2022-07-01T04:12:47;8.63;;;7.80;;
20245;SDS011;10281;54.406;18.556;2022-07-01T04:15:14;11.03;;;8.07;;
20245;SDS011;10281;54.406;18.556;2022-07-01T04:17:40;9.43;;;8.53;;
20245;SDS011;10281;54.406;18.556;2022-07-01T04:20:07;9.10;;;8.20;;
20245;SDS011;10281;54.406;18.556;2022-07-01T04:22:34;10.07;;;8.87;;
20245;SDS011;10281;54.406;18.556;2022-07-01T04:25:02;9.20;;;8.20;;
20245;SDS011;10281;54.406;18.556;2022-07-01T04:27:30;11.03;;;8.60;;
20245;SDS011;10281;54.406;18.556;2022-07-01T04:29:57;9.63;;;8.57;;
20245;SDS011;10281;54.406;18.556;2022-07-01T04:32:24;12.37;;;9.27;;
20245;SDS011;10281;54.406;18.556;2022-07-01T04:34:50;10.67;;;8.43;;
20245;SDS011;10281;54.406;18.556;2022-07-01T04:37:17;12.57;;;9.37;;
20245;SDS011;10281;54.406;18.556;2022-07-01T04:39:45;9.27;;;8.00;;
20245;SDS011;10281;54.406;18.556;2022-07-01T04:42:11;9.67;;;8.80;;
20245;SDS011;10281;54.406;18.556;2022-07-01T04:44:40;10.53;;;9.27;;
20245;SDS011;10281;54.406;18.556;2022-07-01T04:47:07;10.53;;;8.83;;
20245;SDS011;10281;54.406;18.556;2022-07-01T04:49:34;11.63;;;9.33;;
20245;SDS011;10281;54.406;18.556;2022-07-01T04:52:00;14.57;;;10.43;;
20245;SDS011;10281;54.406;18.556;2022-07-01T04:54:27;11.07;;;9.47;;
20245;SDS011;10281;54.406;18.556;2022-07-01T04:56:54;12.37;;;11.07;;
20245;SDS011;10281;54.406;18.556;2022-07-01T04:59:20;12.23;;;10.93;;
20245;SDS011;10281;54.406;18.556;2022-07-01T05:01:47;11.93;;;9.73;;
20245;SDS011;10281;54.406;18.556;2022-07-01T05:04:15;11.83;;;8.00;;
20245;SDS011;10281;54.406;18.556;2022-07-01T05:06:43;9.20;;;8.17;;
20245;SDS011;10281;54.406;18.556;2022-07-01T05:09:10;10.73;;;8.20;;
20245;SDS011;10281;54.406;18.556;2022-07-01T05:11:37;9.13;;;8.20;;
20245;SDS011;10281;54.406;18.556;2022-07-01T05:14:05;10.57;;;9.57;;
20245;SDS011;10281;54.406;18.556;2022-07-01T05:16:32;11.23;;;8.60;;
20245;SDS011;10281;54.406;18.556;2022-07-01T05:19:00;10.47;;;8.20;;
20245;SDS011;10281;54.406;18.556;2022-07-01T05:21:33;12.90;;;8.33;;
20245;SDS011;10281;54.406;18.556;2022-07-01T05:24:06;11.57;;;9.17;;
20245;SDS011;10281;54.406;18.556;2022-07-01T05:26:33;13.00;;;9.73;;
20245;SDS011;10281;54.406;18.556;2022-07-01T05:29:00;10.60;;;9.47;;
20245;SDS011;10281;54.406;18.556;2022-07-01T05:31:26;10.93;;;9.03;;
20245;SDS011;10281;54.406;18.556;2022-07-01T05:33:53;11.27;;;9.63;;
20245;SDS011;10281;54.406;18.556;2022-07-01T05:36:20;12.57;;;10.13;;
20245;SDS011;10281;54.406;18.556;2022-07-01T05:38:47;11.77;;;9.40;;
20245;SDS011;10281;54.406;18.556;2022-07-01T05:41:13;11.73;;;9.60;;
20245;SDS011;10281;54.406;18.556;2022-07-01T05:43:42;11.20;;;8.90;;
20245;SDS011;10281;54.406;18.556;2022-07-01T05:46:09;15.10;;;9.93;;
20245;SDS011;10281;54.406;18.556;2022-07-01T05:48:35;17.17;;;10.47;;
20245;SDS011;10281;54.406;18.556;2022-07-01T05:51:02;15.07;;;10.53;;
20245;SDS011;10281;54.406;18.556;2022-07-01T05:53:29;13.63;;;10.20;;
20245;SDS011;10281;54.406;18.556;2022-07-01T05:55:55;16.03;;;10.10;;
20245;SDS011;10281;54.406;18.556;2022-07-01T05:58:22;15.47;;;10.17;;
20245;SDS011;10281;54.406;18.556;2022-07-01T06:00:49;11.90;;;9.60;;
20245;SDS011;10281;54.406;18.556;2022-07-01T06:03:15;16.17;;;9.77;;
20245;SDS011;10281;54.406;18.556;2022-07-01T06:05:43;10.93;;;9.60;;
20245;SDS011;10281;54.406;18.556;2022-07-01T06:08:09;11.77;;;9.63;;
20245;SDS011;10281;54.406;18.556;2022-07-01T06:10:36;15.10;;;9.70;;
20245;SDS011;10281;54.406;18.556;2022-07-01T06:13:04;13.33;;;10.20;;
20245;SDS011;10281;54.406;18.556;2022-07-01T06:15:31;16.07;;;10.43;;
20245;SDS011;10281;54.406;18.556;2022-07-01T06:17:58;17.20;;;10.40;;
20245;SDS011;10281;54.406;18.556;2022-07-01T06:20:25;17.37;;;10.43;;
20245;SDS011;10281;54.406;18.556;2022-07-01T06:22:51;20.07;;;11.10;;
20245;SDS011;10281;54.406;18.556;2022-07-01T06:25:18;14.70;;;10.33;;
20245;SDS011;10281;54.406;18.556;2022-07-01T06:27:45;14.93;;;10.63;;
20245;SDS011;10281;54.406;18.556;2022-07-01T06:30:12;16.87;;;10.67;;
20245;SDS011;10281;54.406;18.556;2022-07-01T06:32:39;15.57;;;10.70;;
20245;SDS011;10281;54.406;18.556;2022-07-01T06:35:06;17.33;;;11.30;;
20245;SDS011;10281;54.406;18.556;2022-07-01T06:37:33;14.83;;;11.17;;
20245;SDS011;10281;54.406;18.556;2022-07-01T06:40:02;23.83;;;11.67;;
20245;SDS011;10281;54.406;18.556;2022-07-01T06:42:30;18.70;;;11.20;;
20245;SDS011;10281;54.406;18.556;2022-07-01T06:44:57;19.43;;;12.07;;
20245;SDS011;10281;54.406;18.556;2022-07-01T06:47:24;16.90;;;9.87;;
20245;SDS011;10281;54.406;18.556;2022-07-01T06:49:51;15.87;;;11.17;;
20245;SDS011;10281;54.406;18.556;2022-07-01T06:52:17;17.00;;;11.47;;
20245;SDS011;10281;54.406;18.556;2022-07-01T06:54:44;23.00;;;11.63;;
20245;SDS011;10281;54.406;18.556;2022-07-01T06:57:10;16.60;;;10.63;;
20245;SDS011;10281;54.406;18.556;2022-07-01T06:59:37;18.63;;;10.93;;
20245;SDS011;10281;54.406;18.556;2022-07-01T07:02:04;17.07;;;11.30;;
20245;SDS011;10281;54.406;18.556;2022-07-01T07:04:33;17.10;;;11.23;;
20245;SDS011;10281;54.406;18.556;2022-07-01T07:07:01;20.77;;;11.53;;
20245;SDS011;10281;54.406;18.556;2022-07-01T07:09:28;15.00;;;10.53;;
20245;SDS011;10281;54.406;18.556;2022-07-01T07:11:55;17.83;;;10.80;;
20245;SDS011;10281;54.406;18.556;2022-07-01T07:14:21;16.37;;;10.53;;
20245;SDS011;10281;54.406;18.556;2022-07-01T07:16:48;20.77;;;10.30;;
20245;SDS011;10281;54.406;18.556;2022-07-01T07:19:16;18.13;;;10.37;;
20245;SDS011;10281;54.406;18.556;2022-07-01T07:21:43;12.93;;;9.13;;
20245;SDS011;10281;54.406;18.556;2022-07-01T07:24:10;14.27;;;10.40;;
20245;SDS011;10281;54.406;18.556;2022-07-01T07:26:37;16.23;;;8.90;;
20245;SDS011;10281;54.406;18.556;2022-07-01T07:29:04;13.07;;;8.27;;
20245;SDS011;10281;54.406;18.556;2022-07-01T07:31:30;12.00;;;8.33;;
20245;SDS011;10281;54.406;18.556;2022-07-01T07:33:57;12.10;;;8.00;;
20245;SDS011;10281;54.406;18.556;2022-07-01T07:36:24;11.70;;;7.43;;
20245;SDS011;10281;54.406;18.556;2022-07-01T07:38:51;10.97;;;8.23;;
20245;SDS011;10281;54.406;18.556;2022-07-01T07:41:17;11.33;;;8.20;;
20245;SDS011;10281;54.406;18.556;2022-07-01T07:43:44;15.33;;;7.97;;
20245;SDS011;10281;54.406;18.556;2022-07-01T07:46:11;10.23;;;7.20;;
20245;SDS011;10281;54.406;18.556;2022-07-01T07:48:37;10.43;;;6.23;;
20245;SDS011;10281;54.406;18.556;2022-07-01T07:51:04;9.23;;;5.63;;
20245;SDS011;10281;54.406;18.556;2022-07-01T07:53:30;7.93;;;5.80;;
20245;SDS011;10281;54.406;18.556;2022-07-01T07:55:57;10.10;;;6.03;;
20245;SDS011;10281;54.406;18.556;2022-07-01T07:58:24;8.87;;;5.93;;
20245;SDS011;10281;54.406;18.556;2022-07-01T08:00:50;7.33;;;5.80;;
20245;SDS011;10281;54.406;18.556;2022-07-01T08:03:17;17.17;;;7.87;;
20245;SDS011;10281;54.406;18.556;2022-07-01T08:05:44;12.03;;;7.43;;
20245;SDS011;10281;54.406;18.556;2022-07-01T08:08:11;11.17;;;8.00;;
20245;SDS011;10281;54.406;18.556;2022-07-01T08:10:37;15.50;;;10.33;;
20245;SDS011;10281;54.406;18.556;2022-07-01T08:13:04;14.23;;;9.30;;
20245;SDS011;10281;54.406;18.556;2022-07-01T08:15:31;12.90;;;9.80;;
20245;SDS011;10281;54.406;18.556;2022-07-01T08:17:58;11.70;;;9.73;;
20245;SDS011;10281;54.406;18.556;2022-07-01T08:20:25;10.50;;;8.93;;
20245;SDS011;10281;54.406;18.556;2022-07-01T08:22:52;16.10;;;9.20;;
20245;SDS011;10281;54.406;18.556;2022-07-01T08:25:18;12.43;;;8.60;;
20245;SDS011;10281;54.406;18.556;2022-07-01T08:27:45;13.60;;;9.63;;
20245;SDS011;10281;54.406;18.556;2022-07-01T08:30:12;16.20;;;10.60;;
20245;SDS011;10281;54.406;18.556;2022-07-01T08:32:38;15.80;;;10.40;;
20245;SDS011;10281;54.406;18.556;2022-07-01T08:35:05;15.83;;;9.70;;
20245;SDS011;10281;54.406;18.556;2022-07-01T08:37:32;12.40;;;10.00;;
20245;SDS011;10281;54.406;18.556;2022-07-01T08:39:59;18.10;;;10.30;;
20245;SDS011;10281;54.406;18.556;2022-07-01T08:42:25;13.13;;;11.07;;
20245;SDS011;10281;54.406;18.556;2022-07-01T08:44:52;11.63;;;10.13;;
20245;SDS011;10281;54.406;18.556;2022-07-01T08:47:19;13.23;;;10.40;;
20245;SDS011;10281;54.406;18.556;2022-07-01T08:49:46;17.03;;;10.93;;
20245;SDS011;10281;54.406;18.556;2022-07-01T08:52:13;14.10;;;10.57;;
20245;SDS011;10281;54.406;18.556;2022-07-01T08:54:39;14.30;;;11.33;;
20245;SDS011;10281;54.406;18.556;2022-07-01T08:57:07;15.90;;;13.13;;
20245;SDS011;10281;54.406;18.556;2022-07-01T08:59:34;21.53;;;13.63;;
20245;SDS011;10281;54.406;18.556;2022-07-01T09:02:02;15.40;;;11.70;;
20245;SDS011;10281;54.406;18.556;2022-07-01T09:04:31;11.40;;;10.27;;
20245;SDS011;10281;54.406;18.556;2022-07-01T09:07:04;15.07;;;10.27;;
20245;SDS011;10281;54.406;18.556;2022-07-01T09:09:34;11.40;;;9.93;;
20245;SDS011;10281;54.406;18.556;2022-07-01T09:12:03;14.10;;;10.20;;
20245;SDS011;10281;54.406;18.556;2022-07-01T09:14:31;14.23;;;9.50;;
20245;SDS011;10281;54.406;18.556;2022-07-01T09:17:00;12.03;;;10.10;;
20245;SDS011;10281;54.406;18.556;2022-07-01T09:19:32;12.13;;;9.87;;
20245;SDS011;10281;54.406;18.556;2022-07-01T09:22:02;12.00;;;9.43;;
20245;SDS011;10281;54.406;18.556;2022-07-01T09:27:12;13.73;;;9.80;;
20245;SDS011;10281;54.406;18.556;2022-07-01T09:29:43;12.30;;;9.67;;
20245;SDS011;10281;54.406;18.556;2022-07-01T09:32:13;10.63;;;9.17;;
20245;SDS011;10281;54.406;18.556;2022-07-01T09:34:42;10.20;;;9.20;;
20245;SDS011;10281;54.406;18.556;2022-07-01T09:37:13;12.00;;;9.70;;
20245;SDS011;10281;54.406;18.556;2022-07-01T09:39:44;14.23;;;9.97;;
20245;SDS011;10281;54.406;18.556;2022-07-01T09:42:13;15.67;;;9.97;;
20245;SDS011;10281;54.406;18.556;2022-07-01T09:47:17;12.50;;;9.50;;
20245;SDS011;10281;54.406;18.556;2022-07-01T09:49:50;10.90;;;9.77;;
20245;SDS011;10281;54.406;18.556;2022-07-01T09:52:18;13.37;;;9.80;;
20245;SDS011;10281;54.406;18.556;2022-07-01T09:54:46;10.50;;;9.07;;
20245;SDS011;10281;54.406;18.556;2022-07-01T09:57:14;11.83;;;10.27;;
20245;SDS011;10281;54.406;18.556;2022-07-01T09:59:41;14.17;;;10.50;;
20245;SDS011;10281;54.406;18.556;2022-07-01T10:02:09;13.93;;;9.63;;
20245;SDS011;10281;54.406;18.556;2022-07-01T10:04:37;13.80;;;10.53;;
20245;SDS011;10281;54.406;18.556;2022-07-01T10:07:09;17.80;;;10.30;;
20245;SDS011;10281;54.406;18.556;2022-07-01T10:09:50;11.83;;;9.43;;
20245;SDS011;10281;54.406;18.556;2022-07-01T10:12:28;13.40;;;9.13;;
20245;SDS011;10281;54.406;18.556;2022-07-01T10:14:58;12.60;;;9.40;;
20245;SDS011;10281;54.406;18.556;2022-07-01T10:17:27;12.00;;;9.53;;
20245;SDS011;10281;54.406;18.556;2022-07-01T10:20:05;15.40;;;9.70;;
20245;SDS011;10281;54.406;18.556;2022-07-01T10:22:35;13.23;;;8.83;;
20245;SDS011;10281;54.406;18.556;2022-07-01T10:27:41;13.53;;;10.00;;
20245;SDS011;10281;54.406;18.556;2022-07-01T10:30:12;12.07;;;9.70;;
20245;SDS011;10281;54.406;18.556;2022-07-01T10:32:42;10.33;;;9.23;;
20245;SDS011;10281;54.406;18.556;2022-07-01T10:35:12;17.27;;;10.40;;
20245;SDS011;10281;54.406;18.556;2022-07-01T10:38:12;12.13;;;9.03;;
20245;SDS011;10281;54.406;18.556;2022-07-01T10:43:15;11.67;;;10.37;;
20245;SDS011;10281;54.406;18.556;2022-07-01T10:45:44;13.53;;;11.23;;
20245;SDS011;10281;54.406;18.556;2022-07-01T10:48:29;14.90;;;12.37;;
20245;SDS011;10281;54.406;18.556;2022-07-01T10:50:57;15.97;;;12.57;;
20245;SDS011;10281;54.406;18.556;2022-07-01T10:53:24;15.30;;;12.67;;
20245;SDS011;10281;54.406;18.556;2022-07-01T10:55:55;15.87;;;13.97;;
20245;SDS011;10281;54.406;18.556;2022-07-01T10:58:35;18.20;;;14.00;;
20245;SDS011;10281;54.406;18.556;2022-07-01T11:00:59;15.33;;;13.23;;
20245;SDS011;10281;54.406;18.556;2022-07-01T11:03:25;15.53;;;13.23;;
20245;SDS011;10281;54.406;18.556;2022-07-01T11:05:54;16.07;;;13.17;;
20245;SDS011;10281;54.406;18.556;2022-07-01T11:08:21;15.93;;;14.33;;
20245;SDS011;10281;54.406;18.556;2022-07-01T11:10:49;14.30;;;13.00;;
20245;SDS011;10281;54.406;18.556;2022-07-01T11:13:18;16.27;;;14.20;;
20245;SDS011;10281;54.406;18.556;2022-07-01T11:15:46;17.43;;;14.80;;
20245;SDS011;10281;54.406;18.556;2022-07-01T11:18:13;16.23;;;14.83;;
20245;SDS011;10281;54.406;18.556;2022-07-01T11:20:41;15.33;;;13.93;;
20245;SDS011;10281;54.406;18.556;2022-07-01T11:23:07;19.43;;;14.27;;
20245;SDS011;10281;54.406;18.556;2022-07-01T11:25:34;14.60;;;13.10;;
20245;SDS011;10281;54.406;18.556;2022-07-01T11:28:01;13.20;;;11.40;;
20245;SDS011;10281;54.406;18.556;2022-07-01T11:30:27;12.50;;;11.00;;
20245;SDS011;10281;54.406;18.556;2022-07-01T11:32:56;11.77;;;10.47;;
20245;SDS011;10281;54.406;18.556;2022-07-01T11:35:25;13.00;;;10.97;;
20245;SDS011;10281;54.406;18.556;2022-07-01T11:38:08;9.47;;;8.57;;
20245;SDS011;10281;54.406;18.556;2022-07-01T11:40:46;9.68;;;8.70;;
20245;SDS011;10281;54.406;18.556;2022-07-01T11:43:17;11.70;;;8.27;;
20245;SDS011;10281;54.406;18.556;2022-07-01T11:45:46;10.60;;;8.77;;
20245;SDS011;10281;54.406;18.556;2022-07-01T11:48:13;14.30;;;8.70;;
20245;SDS011;10281;54.406;18.556;2022-07-01T11:50:47;12.20;;;9.27;;
20245;SDS011;10281;54.406;18.556;2022-07-01T11:53:13;13.97;;;9.50;;
20245;SDS011;10281;54.406;18.556;2022-07-01T11:55:44;10.53;;;9.40;;
20245;SDS011;10281;54.406;18.556;2022-07-01T11:58:10;14.78;;;9.33;;
20245;SDS011;10281;54.406;18.556;2022-07-01T12:00:37;12.33;;;9.90;;
20245;SDS011;10281;54.406;18.556;2022-07-01T12:03:04;17.50;;;10.50;;
20245;SDS011;10281;54.406;18.556;2022-07-01T12:05:34;16.67;;;9.93;;
20245;SDS011;10281;54.406;18.556;2022-07-01T12:08:02;13.93;;;9.08;;
20245;SDS011;10281;54.406;18.556;2022-07-01T12:10:29;16.33;;;8.87;;
20245;SDS011;10281;54.406;18.556;2022-07-01T12:12:57;13.38;;;8.65;;
20245;SDS011;10281;54.406;18.556;2022-07-01T12:15:23;12.93;;;8.28;;
20245;SDS011;10281;54.406;18.556;2022-07-01T12:17:50;9.40;;;7.40;;
20245;SDS011;10281;54.406;18.556;2022-07-01T12:20:31;10.80;;;8.07;;
20245;SDS011;10281;54.406;18.556;2022-07-01T12:25:38;12.50;;;8.40;;
20245;SDS011;10281;54.406;18.556;2022-07-01T12:28:05;10.55;;;8.63;;
20245;SDS011;10281;54.406;18.556;2022-07-01T12:30:32;10.53;;;8.63;;
20245;SDS011;10281;54.406;18.556;2022-07-01T12:33:07;12.47;;;8.00;;
20245;SDS011;10281;54.406;18.556;2022-07-01T12:35:35;9.87;;;7.80;;
20245;SDS011;10281;54.406;18.556;2022-07-01T12:38:14;9.15;;;7.92;;
20245;SDS011;10281;54.406;18.556;2022-07-01T12:40:42;8.30;;;7.60;;
20245;SDS011;10281;54.406;18.556;2022-07-01T12:45:47;9.27;;;7.60;;
20245;SDS011;10281;54.406;18.556;2022-07-01T12:48:14;9.00;;;7.93;;
20245;SDS011;10281;54.406;18.556;2022-07-01T12:50:41;10.27;;;7.70;;
20245;SDS011;10281;54.406;18.556;2022-07-01T12:53:11;11.33;;;7.10;;
20245;SDS011;10281;54.406;18.556;2022-07-01T12:55:42;9.97;;;7.17;;
20245;SDS011;10281;54.406;18.556;2022-07-01T12:58:13;8.80;;;7.43;;
20245;SDS011;10281;54.406;18.556;2022-07-01T13:00:42;7.83;;;6.97;;
20245;SDS011;10281;54.406;18.556;2022-07-01T13:03:11;7.92;;;7.12;;
20245;SDS011;10281;54.406;18.556;2022-07-01T13:05:38;8.10;;;7.30;;
20245;SDS011;10281;54.406;18.556;2022-07-01T13:08:07;9.15;;;8.10;;
20245;SDS011;10281;54.406;18.556;2022-07-01T13:10:34;10.57;;;8.40;;
20245;SDS011;10281;54.406;18.556;2022-07-01T13:13:01;11.63;;;8.10;;
20245;SDS011;10281;54.406;18.556;2022-07-01T13:15:29;10.45;;;7.97;;
20245;SDS011;10281;54.406;18.556;2022-07-01T13:17:56;9.83;;;8.35;;
20245;SDS011;10281;54.406;18.556;2022-07-01T13:20:23;8.70;;;7.90;;
20245;SDS011;10281;54.406;18.556;2022-07-01T13:22:49;9.35;;;8.45;;
20245;SDS011;10281;54.406;18.556;2022-07-01T13:25:16;9.40;;;7.90;;
20245;SDS011;10281;54.406;18.556;2022-07-01T13:27:43;11.80;;;8.20;;
20245;SDS011;10281;54.406;18.556;2022-07-01T13:30:10;10.45;;;7.78;;
20245;SDS011;10281;54.406;18.556;2022-07-01T13:32:37;11.37;;;8.03;;
20245;SDS011;10281;54.406;18.556;2022-07-01T13:35:05;7.40;;;6.67;;
20245;SDS011;10281;54.406;18.556;2022-07-01T13:37:33;7.90;;;7.00;;
20245;SDS011;10281;54.406;18.556;2022-07-01T13:40:00;7.67;;;6.87;;
20245;SDS011;10281;54.406;18.556;2022-07-01T13:42:26;9.20;;;7.10;;
20245;SDS011;10281;54.406;18.556;2022-07-01T13:44:53;9.63;;;7.40;;
20245;SDS011;10281;54.406;18.556;2022-07-01T13:47:20;9.30;;;7.27;;
20245;SDS011;10281;54.406;18.556;2022-07-01T13:49:47;8.10;;;6.80;;
20245;SDS011;10281;54.406;18.556;2022-07-01T13:52:14;9.30;;;7.17;;
20245;SDS011;10281;54.406;18.556;2022-07-01T13:54:41;9.13;;;6.30;;
20245;SDS011;10281;54.406;18.556;2022-07-01T13:57:08;8.73;;;6.70;;
20245;SDS011;10281;54.406;18.556;2022-07-01T13:59:35;8.37;;;6.07;;
20245;SDS011;10281;54.406;18.556;2022-07-01T14:02:01;9.40;;;6.20;;
20245;SDS011;10281;54.406;18.556;2022-07-01T14:04:29;7.77;;;6.27;;
20245;SDS011;10281;54.406;18.556;2022-07-01T14:06:56;6.73;;;5.53;;
20245;SDS011;10281;54.406;18.556;2022-07-01T14:09:23;6.57;;;5.60;;
20245;SDS011;10281;54.406;18.556;2022-07-01T14:11:50;8.40;;;6.00;;
20245;SDS011;10281;54.406;18.556;2022-07-01T14:14:17;7.42;;;5.85;;
20245;SDS011;10281;54.406;18.556;2022-07-01T14:16:43;8.23;;;5.57;;
20245;SDS011;10281;54.406;18.556;2022-07-01T14:19:10;7.20;;;6.43;;
20245;SDS011;10281;54.406;18.556;2022-07-01T14:21:36;6.27;;;5.67;;
20245;SDS011;10281;54.406;18.556;2022-07-01T14:24:04;7.42;;;6.53;;
20245;SDS011;10281;54.406;18.556;2022-07-01T14:26:30;11.18;;;7.00;;
20245;SDS011;10281;54.406;18.556;2022-07-01T14:28:57;9.53;;;6.30;;
20245;SDS011;10281;54.406;18.556;2022-07-01T14:31:24;10.73;;;6.40;;
20245;SDS011;10281;54.406;18.556;2022-07-01T14:33:50;7.50;;;6.70;;
20245;SDS011;10281;54.406;18.556;2022-07-01T14:36:17;9.47;;;6.90;;
20245;SDS011;10281;54.406;18.556;2022-07-01T14:38:44;7.37;;;6.47;;
20245;SDS011;10281;54.406;18.556;2022-07-01T14:41:10;8.30;;;6.50;;